createdAt,value
2018-06-09T00:00:15.218Z,0.00
2018-06-09T00:01:15.424Z,0.00
2018-06-09T00:02:15.623Z,0.00
2018-06-09T00:03:15.833Z,0.00
2018-06-09T00:04:16.045Z,0.00
2018-06-09T00:05:16.244Z,0.00
2018-06-09T00:06:16.451Z,0.00
2018-06-09T00:07:16.637Z,0.00
2018-06-09T00:08:16.831Z,0.00
2018-06-09T00:09:17.048Z,0.00
2018-06-09T00:10:17.266Z,0.00
2018-06-09T00:11:17.494Z,0.00
2018-06-09T00:12:17.689Z,0.00
2018-06-09T00:13:17.908Z,0.00
2018-06-09T00:14:18.096Z,0.00
2018-06-09T00:15:18.301Z,0.00
2018-06-09T00:16:18.515Z,0.00
2018-06-09T00:17:18.717Z,0.00
2018-06-09T00:18:18.901Z,0.00
2018-06-09T00:19:19.098Z,0.00
2018-06-09T00:20:19.382Z,0.00
2018-06-09T00:21:19.461Z,0.00
2018-06-09T00:22:19.673Z,0.00
2018-06-09T00:23:19.859Z,0.00
2018-06-09T00:24:20.044Z,0.00
2018-06-09T00:25:20.244Z,0.00
2018-06-09T00:26:20.462Z,0.00
2018-06-09T00:27:20.652Z,0.00
2018-06-09T00:28:20.840Z,0.00
2018-06-09T00:29:21.036Z,0.00
2018-06-09T00:30:21.253Z,0.00
2018-06-09T00:31:21.465Z,0.00
2018-06-09T00:32:21.673Z,0.00
2018-06-09T00:33:21.858Z,0.00
2018-06-09T00:34:22.046Z,0.00
2018-06-09T00:35:22.263Z,0.00
2018-06-09T00:36:22.453Z,0.00
2018-06-09T00:37:22.663Z,0.00
2018-06-09T00:38:23.000Z,0.00
2018-06-09T00:39:23.089Z,0.00
2018-06-09T00:40:23.280Z,0.00
2018-06-09T00:41:23.494Z,0.00
2018-06-09T00:42:23.721Z,0.00
2018-06-09T00:43:23.931Z,0.00
2018-06-09T00:44:24.144Z,0.00
2018-06-09T00:45:24.353Z,0.00
2018-06-09T00:46:24.544Z,0.00
2018-06-09T00:47:24.755Z,0.00
2018-06-09T00:48:24.955Z,0.00
2018-06-09T00:49:25.267Z,0.00
2018-06-09T00:50:25.356Z,0.00
2018-06-09T00:51:25.569Z,0.00
2018-06-09T00:52:25.758Z,0.00
2018-06-09T00:53:25.945Z,0.00
2018-06-09T00:54:26.147Z,0.00
2018-06-09T00:55:26.354Z,0.00
2018-06-09T00:56:26.543Z,0.00
2018-06-09T00:57:26.755Z,0.00
2018-06-09T00:58:26.968Z,0.00
2018-06-09T00:59:27.174Z,0.00
2018-06-09T01:00:27.384Z,0.00
2018-06-09T01:01:27.584Z,0.00
2018-06-09T01:02:27.784Z,0.00
2018-06-09T01:03:27.976Z,0.00
2018-06-09T01:04:28.164Z,0.00
2018-06-09T01:05:28.362Z,0.00
2018-06-09T01:06:28.580Z,0.00
2018-06-09T01:07:28.788Z,0.00
2018-06-09T01:08:29.002Z,0.00
2018-06-09T01:09:29.198Z,0.00
2018-06-09T01:10:29.407Z,0.00
2018-06-09T01:11:29.657Z,0.00
2018-06-09T01:12:29.735Z,0.00
2018-06-09T01:13:29.946Z,0.00
2018-06-09T01:14:30.138Z,0.00
2018-06-09T01:15:30.347Z,0.00
2018-06-09T01:16:30.556Z,0.00
2018-06-09T01:17:30.769Z,0.00
2018-06-09T01:18:31.011Z,0.00
2018-06-09T01:19:31.213Z,0.00
2018-06-09T01:20:31.417Z,0.00
2018-06-09T01:21:31.631Z,0.00
2018-06-09T01:22:31.820Z,0.00
2018-06-09T01:23:32.030Z,0.00
2018-06-09T01:24:32.222Z,0.00
2018-06-09T01:25:32.396Z,0.00
2018-06-09T01:26:32.608Z,0.00
2018-06-09T01:27:32.812Z,0.00
2018-06-09T01:28:33.000Z,0.00
2018-06-09T01:29:33.217Z,0.00
2018-06-09T01:32:05.517Z,0.00
2018-06-09T01:33:05.576Z,0.00
2018-06-09T01:34:05.787Z,0.00
2018-06-09T01:35:05.982Z,0.00
2018-06-09T01:36:06.179Z,0.00
2018-06-09T01:37:06.357Z,0.00
2018-06-09T01:38:06.544Z,0.00
2018-06-09T01:39:06.755Z,0.00
2018-06-09T01:40:06.941Z,0.00
2018-06-09T01:41:07.157Z,0.00
2018-06-09T01:42:07.386Z,0.00
2018-06-09T01:43:07.626Z,0.00
2018-06-09T01:44:07.836Z,0.00
2018-06-09T01:45:08.016Z,0.00
2018-06-09T01:46:08.230Z,0.00
2018-06-09T01:47:08.442Z,0.00
2018-06-09T01:48:08.670Z,0.00
2018-06-09T01:49:08.865Z,0.00
2018-06-09T01:50:09.075Z,0.00
2018-06-09T01:51:09.282Z,0.00
2018-06-09T01:52:09.481Z,0.00
2018-06-09T01:53:09.701Z,0.00
2018-06-09T01:54:09.906Z,0.00
2018-06-09T01:55:10.093Z,0.00
2018-06-09T01:56:10.295Z,0.00
2018-06-09T01:57:10.500Z,0.00
2018-06-09T01:58:10.723Z,0.00
2018-06-09T01:59:10.913Z,0.00
2018-06-09T02:00:11.111Z,0.00
2018-06-09T02:01:11.302Z,0.00
2018-06-09T02:02:11.502Z,0.00
2018-06-09T02:03:11.706Z,0.00
2018-06-09T02:04:11.925Z,0.00
2018-06-09T02:05:12.130Z,0.00
2018-06-09T02:06:12.337Z,0.00
2018-06-09T02:07:12.553Z,0.00
2018-06-09T02:08:12.761Z,0.00
2018-06-09T02:09:12.952Z,0.00
2018-06-09T02:10:13.156Z,0.00
2018-06-09T02:11:13.343Z,0.00
2018-06-09T02:12:13.548Z,0.00
2018-06-09T02:13:13.743Z,0.00
2018-06-09T02:14:13.961Z,0.00
2018-06-09T02:15:14.157Z,0.00
2018-06-09T02:16:14.341Z,0.00
2018-06-09T02:17:14.562Z,0.00
2018-06-09T02:18:14.763Z,0.00
2018-06-09T02:19:14.948Z,0.00
2018-06-09T02:20:15.189Z,0.00
2018-06-09T02:21:15.391Z,0.00
2018-06-09T02:22:15.581Z,0.00
2018-06-09T02:23:15.776Z,0.00
2018-06-09T02:24:15.972Z,4.00
2018-06-09T02:25:16.160Z,4.00
2018-06-09T02:26:16.367Z,0.00
2018-06-09T02:27:16.555Z,0.00
2018-06-09T02:28:16.761Z,4.00
2018-06-09T02:29:16.951Z,4.00
2018-06-09T02:30:17.163Z,4.00
2018-06-09T02:31:17.362Z,4.00
2018-06-09T02:32:17.579Z,4.00
2018-06-09T02:33:17.764Z,4.00
2018-06-09T02:34:17.965Z,4.00
2018-06-09T02:35:18.156Z,4.00
2018-06-09T02:36:18.342Z,8.00
2018-06-09T02:37:18.549Z,4.00
2018-06-09T02:38:18.742Z,8.00
2018-06-09T02:39:18.951Z,8.00
2018-06-09T02:40:19.150Z,12.00
2018-06-09T02:41:19.343Z,8.00
2018-06-09T02:42:19.559Z,12.00
2018-06-09T02:43:19.745Z,12.00
2018-06-09T02:44:19.951Z,16.00
2018-06-09T02:45:20.140Z,16.00
2018-06-09T02:46:20.328Z,20.00
2018-06-09T02:47:20.543Z,20.00
2018-06-09T02:48:20.733Z,24.00
2018-06-09T02:49:20.929Z,28.00
2018-06-09T02:50:21.128Z,32.00
2018-06-09T02:51:21.333Z,36.00
2018-06-09T02:52:21.522Z,44.00
2018-06-09T02:53:21.716Z,44.00
2018-06-09T02:55:53.811Z,56.00
2018-06-09T02:56:53.983Z,60.00
2018-06-09T02:57:54.199Z,64.00
2018-06-09T02:58:54.388Z,72.00
2018-06-09T02:59:54.582Z,76.00
2018-06-09T03:00:54.797Z,84.00
2018-06-09T03:01:54.988Z,92.00
2018-06-09T03:02:55.189Z,108.00
2018-06-09T03:03:55.394Z,128.00
2018-06-09T03:04:55.582Z,152.00
2018-06-09T03:05:55.767Z,172.00
2018-06-09T03:06:55.972Z,204.00
2018-06-09T03:07:56.154Z,240.00
2018-06-09T03:08:56.355Z,268.00
2018-06-09T03:09:56.559Z,292.00
2018-06-09T03:10:56.754Z,324.00
2018-06-09T03:11:56.944Z,348.00
2018-06-09T03:12:57.153Z,368.00
2018-06-09T03:13:57.359Z,384.00
2018-06-09T03:14:57.565Z,400.00
2018-06-09T03:15:57.778Z,412.00
2018-06-09T03:16:58.000Z,432.00
2018-06-09T03:17:58.194Z,452.00
2018-06-09T03:18:58.405Z,488.00
2018-06-09T03:19:58.592Z,512.00
2018-06-09T03:20:58.780Z,536.00
2018-06-09T03:21:58.995Z,568.00
2018-06-09T03:22:59.196Z,596.00
2018-06-09T03:23:59.399Z,632.00
2018-06-09T03:24:59.618Z,664.00
2018-06-09T03:25:59.829Z,708.00
2018-06-09T03:27:00.028Z,780.00
2018-06-09T03:28:00.213Z,876.00
2018-06-09T03:29:00.402Z,996.00
2018-06-09T03:30:00.583Z,1096.00
2018-06-09T03:31:00.774Z,1160.00
2018-06-09T03:32:00.983Z,1208.00
2018-06-09T03:33:01.195Z,1260.00
2018-06-09T03:34:01.396Z,1316.00
2018-06-09T03:35:01.577Z,1340.00
2018-06-09T03:36:01.768Z,1392.00
2018-06-09T03:37:01.956Z,1464.00
2018-06-09T03:38:02.161Z,1508.00
2018-06-09T03:39:02.345Z,1616.00
2018-06-09T03:40:02.543Z,1784.00
2018-06-09T03:41:02.753Z,1960.00
2018-06-09T03:42:02.955Z,2132.00
2018-06-09T03:43:03.217Z,2280.00
2018-06-09T03:44:03.357Z,2412.00
2018-06-09T03:45:03.623Z,2528.00
2018-06-09T03:46:03.707Z,2624.00
2018-06-09T03:47:03.902Z,2688.00
2018-06-09T03:48:04.102Z,2684.00
2018-06-09T03:49:04.293Z,2664.00
2018-06-09T03:50:04.477Z,2716.00
2018-06-09T03:51:04.699Z,2868.00
2018-06-09T03:52:04.883Z,3064.00
2018-06-09T03:53:05.084Z,3236.00
2018-06-09T03:54:05.282Z,3364.00
2018-06-09T03:55:05.482Z,3460.00
2018-06-09T03:56:05.739Z,3588.00
2018-06-09T03:57:05.944Z,3732.00
2018-06-09T03:59:38.070Z,3980.00
2018-06-09T04:00:38.243Z,4032.00
2018-06-09T04:01:38.457Z,4068.00
2018-06-09T04:02:38.651Z,4084.00
2018-06-09T04:03:38.841Z,4116.00
2018-06-09T04:04:39.045Z,4128.00
2018-06-09T04:05:39.322Z,4084.00
2018-06-09T04:06:39.402Z,4040.00
2018-06-09T04:07:39.616Z,3932.00
2018-06-09T04:08:39.809Z,3720.00
2018-06-09T04:09:40.019Z,3612.00
2018-06-09T04:10:40.208Z,3580.00
2018-06-09T04:11:40.424Z,3504.00
2018-06-09T04:12:40.620Z,3440.00
2018-06-09T04:13:40.812Z,3520.00
2018-06-09T04:14:41.004Z,3420.00
2018-06-09T04:15:41.191Z,3228.00
2018-06-09T04:16:41.419Z,3044.00
2018-06-09T04:17:41.633Z,3056.00
2018-06-09T04:18:41.851Z,3192.00
2018-06-09T04:19:42.055Z,3264.00
2018-06-09T04:20:42.311Z,3436.00
2018-06-09T04:21:42.467Z,3276.00
2018-06-09T04:22:42.672Z,3404.00
2018-06-09T04:23:42.880Z,3284.00
2018-06-09T04:24:43.072Z,3452.00
2018-06-09T04:25:43.283Z,3436.00
2018-06-09T04:26:43.498Z,3420.00
2018-06-09T04:27:43.738Z,3780.00
2018-06-09T04:28:43.924Z,4008.00
2018-06-09T04:29:44.103Z,4260.00
2018-06-09T04:30:44.311Z,4444.00
2018-06-09T04:31:44.499Z,4488.00
2018-06-09T04:32:44.707Z,4444.00
2018-06-09T04:33:44.893Z,4240.00
2018-06-09T04:34:45.115Z,3972.00
2018-06-09T04:35:45.305Z,3840.00
2018-06-09T04:36:45.499Z,3520.00
2018-06-09T04:37:45.704Z,3360.00
2018-06-09T04:38:45.911Z,3148.00
2018-06-09T04:39:46.185Z,3040.00
2018-06-09T04:40:46.336Z,3104.00
2018-06-09T04:41:46.525Z,3008.00
2018-06-09T04:42:46.744Z,2856.00
2018-06-09T04:43:46.934Z,2756.00
2018-06-09T04:44:47.118Z,2636.00
2018-06-09T04:45:47.315Z,2528.00
2018-06-09T04:46:47.507Z,2532.00
2018-06-09T04:47:47.705Z,2652.00
2018-06-09T04:48:47.924Z,2776.00
2018-06-09T04:49:48.121Z,2892.00
2018-06-09T04:50:48.317Z,3088.00
2018-06-09T04:51:48.506Z,3356.00
2018-06-09T04:52:48.704Z,3468.00
2018-06-09T04:53:48.894Z,3612.00
2018-06-09T04:54:49.104Z,3844.00
2018-06-09T04:55:49.291Z,3856.00
2018-06-09T04:56:49.593Z,3952.00
2018-06-09T04:57:49.660Z,4708.00
2018-06-09T04:58:49.874Z,4888.00
2018-06-09T04:59:50.064Z,5792.00
2018-06-09T05:00:50.269Z,5676.00
2018-06-09T05:01:50.486Z,5984.00
2018-06-09T05:02:50.676Z,6612.00
2018-06-09T05:03:50.868Z,7324.00
2018-06-09T05:04:51.054Z,8032.00
2018-06-09T05:05:51.238Z,8812.00
2018-06-09T05:06:51.435Z,9700.00
2018-06-09T05:07:51.645Z,11020.00
2018-06-09T05:08:51.835Z,12024.00
2018-06-09T05:09:52.049Z,15328.00
2018-06-09T05:10:52.255Z,19552.00
2018-06-09T05:11:52.461Z,16544.00
2018-06-09T05:12:52.673Z,17024.00
2018-06-09T05:13:52.883Z,16352.00
2018-06-09T05:14:53.082Z,12432.00
2018-06-09T05:15:53.293Z,9784.00
2018-06-09T05:16:53.495Z,8224.00
2018-06-09T05:17:53.694Z,7580.00
2018-06-09T05:18:53.906Z,7620.00
2018-06-09T05:19:54.108Z,7568.00
2018-06-09T05:20:54.322Z,7608.00
2018-06-09T05:21:54.515Z,7840.00
2018-06-09T05:22:54.713Z,8144.00
2018-06-09T05:23:54.920Z,8664.00
2018-06-09T05:24:55.126Z,9956.00
2018-06-09T05:25:55.345Z,12008.00
2018-06-09T05:26:55.550Z,14288.00
2018-06-09T05:27:55.747Z,14196.00
2018-06-09T05:28:55.957Z,15040.00
2018-06-09T05:29:56.155Z,13096.00
2018-06-09T05:30:56.343Z,10992.00
2018-06-09T05:31:56.550Z,9840.00
2018-06-09T05:32:56.768Z,9552.00
2018-06-09T05:33:56.971Z,9360.00
2018-06-09T05:34:57.179Z,9532.00
2018-06-09T05:35:57.384Z,9884.00
2018-06-09T05:36:57.578Z,10092.00
2018-06-09T05:37:57.793Z,10152.00
2018-06-09T05:38:57.980Z,10296.00
2018-06-09T05:39:58.197Z,10380.00
2018-06-09T05:40:58.401Z,10484.00
2018-06-09T05:41:58.594Z,10608.00
2018-06-09T05:42:58.805Z,11060.00
2018-06-09T05:43:59.025Z,11612.00
2018-06-09T05:44:59.232Z,12108.00
2018-06-09T05:45:59.429Z,12672.00
2018-06-09T05:46:59.624Z,13596.00
2018-06-09T05:47:59.837Z,16480.00
2018-06-09T05:49:00.056Z,25408.00
2018-06-09T05:50:00.283Z,28064.00
2018-06-09T05:51:00.504Z,29120.00
2018-06-09T05:52:00.685Z,23008.00
2018-06-09T05:53:00.889Z,19776.00
2018-06-09T05:54:01.102Z,22112.00
2018-06-09T05:55:01.295Z,20160.00
2018-06-09T05:56:01.485Z,15940.00
2018-06-09T05:57:01.695Z,17984.00
2018-06-09T05:58:01.888Z,17568.00
2018-06-09T05:59:02.095Z,17792.00
2018-06-09T06:00:02.304Z,19296.00
2018-06-09T06:01:02.498Z,18656.00
2018-06-09T06:02:02.696Z,21728.00
2018-06-09T06:03:02.940Z,38720.00
2018-06-09T06:04:03.138Z,43712.00
2018-06-09T06:05:03.316Z,42176.00
2018-06-09T06:07:35.439Z,44032.00
2018-06-09T06:08:35.646Z,47008.00
2018-06-09T06:09:35.837Z,41952.00
2018-06-09T06:10:36.039Z,45696.00
2018-06-09T06:11:36.244Z,48448.00
2018-06-09T06:12:36.451Z,49024.00
2018-06-09T06:13:36.651Z,48960.00
2018-06-09T06:14:36.872Z,49472.00
2018-06-09T06:15:37.083Z,50944.00
2018-06-09T06:16:37.283Z,50816.00
2018-06-09T06:17:37.492Z,50496.00
2018-06-09T06:18:37.685Z,51264.00
2018-06-09T06:19:37.886Z,52448.00
2018-06-09T06:20:38.110Z,53184.00
2018-06-09T06:21:38.303Z,54272.00
2018-06-09T06:24:10.448Z,53856.00
2018-06-09T06:25:10.628Z,53344.00
2018-06-09T06:27:42.535Z,52288.00
2018-06-09T06:28:42.722Z,51392.00
2018-06-09T06:29:42.921Z,52160.00
2018-06-09T06:30:43.142Z,52224.00
2018-06-09T06:31:43.346Z,50528.00
2018-06-09T06:32:43.563Z,52480.00
2018-06-09T06:33:43.785Z,51808.00
2018-06-09T06:34:43.985Z,52576.00
2018-06-09T06:35:44.186Z,51968.00
2018-06-09T06:36:44.387Z,52128.00
2018-06-09T06:37:44.585Z,51776.00
2018-06-09T06:38:44.790Z,52224.00
2018-06-09T06:39:45.006Z,53344.00
2018-06-09T06:40:45.200Z,49600.00
2018-06-09T06:41:45.420Z,53472.00
2018-06-09T06:42:45.629Z,53568.00
2018-06-09T06:43:45.845Z,53504.00
2018-06-09T06:44:46.125Z,52736.00
2018-06-09T06:45:46.271Z,53344.00
2018-06-09T06:46:46.359Z,52928.00
2018-06-09T06:47:46.562Z,54656.00
2018-06-09T06:48:46.767Z,52640.00
2018-06-09T06:49:46.967Z,51904.00
2018-06-09T06:50:47.169Z,51712.00
2018-06-09T06:51:47.375Z,44896.00
2018-06-09T06:52:47.593Z,43648.00
2018-06-09T06:55:19.435Z,49536.00
2018-06-09T06:56:19.624Z,49824.00
2018-06-09T06:57:19.843Z,53824.00
2018-06-09T06:58:20.083Z,55136.00
2018-06-09T06:59:20.308Z,54880.00
2018-06-09T07:00:20.531Z,54272.00
2018-06-09T07:01:20.750Z,51488.00
2018-06-09T07:02:21.099Z,51968.00
2018-06-09T07:03:21.173Z,55360.00
2018-06-09T07:04:21.391Z,56544.00
2018-06-09T07:05:21.608Z,56992.00
2018-06-09T07:06:21.813Z,58080.00
2018-06-09T07:07:22.040Z,57984.00
2018-06-09T07:08:22.255Z,57568.00
2018-06-09T07:09:22.461Z,58176.00
2018-06-09T07:10:22.702Z,58304.00
2018-06-09T07:11:22.936Z,59968.00
2018-06-09T07:12:23.159Z,60512.00
2018-06-09T07:13:23.405Z,60544.00
2018-06-09T07:14:23.578Z,60704.00
2018-06-09T07:15:23.800Z,60704.00
2018-06-09T07:16:24.027Z,59488.00
2018-06-09T07:17:24.251Z,59296.00
2018-06-09T07:18:24.467Z,59808.00
2018-06-09T07:19:24.688Z,59936.00
2018-06-09T07:20:24.904Z,59616.00
2018-06-09T07:21:25.116Z,58976.00
2018-06-09T07:22:25.329Z,56160.00
2018-06-09T07:23:25.535Z,55968.00
2018-06-09T07:24:25.738Z,56384.00
2018-06-09T07:25:25.949Z,49344.00
2018-06-09T07:26:26.172Z,44224.00
2018-06-09T07:27:26.379Z,54176.00
2018-06-09T07:28:26.591Z,50336.00
2018-06-09T07:29:26.811Z,47104.00
2018-06-09T07:30:27.025Z,49408.00
2018-06-09T07:31:27.216Z,50336.00
2018-06-09T07:32:27.441Z,59008.00
2018-06-09T07:33:27.643Z,61984.00
2018-06-09T07:34:27.845Z,50752.00
2018-06-09T07:35:28.047Z,42880.00
2018-06-09T07:36:28.259Z,31520.00
2018-06-09T07:37:28.476Z,29376.00
2018-06-09T07:38:28.703Z,30464.00
2018-06-09T07:39:28.899Z,36096.00
2018-06-09T07:40:29.128Z,54272.00
2018-06-09T07:41:29.329Z,55168.00
2018-06-09T07:42:29.538Z,67744.00
2018-06-09T07:43:29.740Z,66432.00
2018-06-09T07:44:29.948Z,64928.00
2018-06-09T07:45:30.178Z,64032.00
2018-06-09T07:46:30.402Z,64352.00
2018-06-09T07:47:30.620Z,64256.00
2018-06-09T07:48:30.889Z,64000.00
2018-06-09T07:49:31.007Z,64512.00
2018-06-09T07:50:31.239Z,64832.00
2018-06-09T07:51:31.460Z,65664.00
2018-06-09T07:52:31.661Z,65216.00
2018-06-09T07:53:31.863Z,65408.00
2018-06-09T07:54:32.086Z,65472.00
2018-06-09T07:55:32.284Z,65728.00
2018-06-09T07:56:32.518Z,66592.00
2018-06-09T07:57:32.751Z,67008.00
2018-06-09T08:00:05.168Z,68064.00
2018-06-09T08:01:05.103Z,67616.00
2018-06-09T08:02:05.361Z,67552.00
2018-06-09T08:03:05.570Z,67936.00
2018-06-09T08:04:05.767Z,67264.00
2018-06-09T08:05:06.001Z,67776.00
2018-06-09T08:06:06.198Z,67488.00
2018-06-09T08:07:06.418Z,67328.00
2018-06-09T08:08:06.637Z,67776.00
2018-06-09T08:09:06.856Z,65856.00
2018-06-09T08:11:39.023Z,68160.00
2018-06-09T08:12:39.218Z,69056.00
2018-06-09T08:13:39.436Z,69376.00
2018-06-09T08:14:39.654Z,69920.00
2018-06-09T08:15:39.888Z,70208.00
2018-06-09T08:16:40.097Z,69792.00
2018-06-09T08:17:40.305Z,71744.00
2018-06-09T08:18:40.520Z,71648.00
2018-06-09T08:19:40.755Z,71424.00
2018-06-09T08:20:40.980Z,69952.00
2018-06-09T08:21:41.227Z,70400.00
2018-06-09T08:22:41.445Z,71008.00
2018-06-09T08:23:41.662Z,71264.00
2018-06-09T08:24:41.885Z,70912.00
2018-06-09T08:25:42.096Z,69376.00
2018-06-09T08:26:42.291Z,68672.00
2018-06-09T08:27:42.520Z,68128.00
2018-06-09T08:28:42.740Z,68384.00
2018-06-09T08:29:42.947Z,68160.00
2018-06-09T08:32:15.118Z,68704.00
2018-06-09T08:33:15.304Z,67168.00
2018-06-09T08:34:15.522Z,67136.00
2018-06-09T08:35:15.764Z,68672.00
2018-06-09T08:37:48.687Z,65760.00
2018-06-09T08:38:48.135Z,63744.00
2018-06-09T08:39:48.346Z,61600.00
2018-06-09T08:40:48.557Z,65376.00
2018-06-09T08:41:48.752Z,65984.00
2018-06-09T08:42:48.971Z,68032.00
2018-06-09T08:43:49.186Z,69312.00
2018-06-09T08:44:49.387Z,69024.00
2018-06-09T08:45:49.615Z,68032.00
2018-06-09T08:46:49.843Z,66304.00
2018-06-09T08:47:50.062Z,66144.00
2018-06-09T08:48:50.261Z,63584.00
2018-06-09T08:49:50.477Z,62304.00
2018-06-09T08:50:50.699Z,61696.00
2018-06-09T08:51:50.918Z,62080.00
2018-06-09T08:52:51.148Z,62848.00
2018-06-09T08:53:51.367Z,63968.00
2018-06-09T08:54:51.589Z,63776.00
2018-06-09T08:55:51.804Z,63104.00
2018-06-09T08:56:52.103Z,64160.00
2018-06-09T08:57:52.261Z,64640.00
2018-06-09T08:58:52.478Z,66976.00
2018-06-09T08:59:52.705Z,68192.00
2018-06-09T09:00:52.963Z,71200.00
2018-06-09T09:01:53.153Z,71840.00
2018-06-09T09:02:53.379Z,72384.00
2018-06-09T09:03:53.610Z,72896.00
2018-06-09T09:04:53.816Z,72000.00
2018-06-09T09:05:54.034Z,71008.00
2018-06-09T09:06:54.239Z,69824.00
2018-06-09T09:07:54.450Z,69280.00
2018-06-09T09:08:54.650Z,69120.00
2018-06-09T09:09:54.853Z,67904.00
2018-06-09T09:10:55.088Z,67744.00
2018-06-09T09:11:55.290Z,67008.00
2018-06-09T09:12:55.524Z,67584.00
2018-06-09T09:13:55.764Z,68000.00
2018-06-09T09:14:55.998Z,68992.00
2018-06-09T09:15:56.209Z,69504.00
2018-06-09T09:16:56.422Z,70016.00
2018-06-09T09:17:56.650Z,70176.00
2018-06-09T09:18:56.865Z,69088.00
2018-06-09T09:19:57.087Z,68480.00
2018-06-09T09:20:57.308Z,66656.00
2018-06-09T09:21:57.528Z,64704.00
2018-06-09T09:22:57.752Z,63776.00
2018-06-09T09:23:57.960Z,63392.00
2018-06-09T09:24:58.177Z,64704.00
2018-06-09T09:25:58.398Z,66624.00
2018-06-09T09:26:58.719Z,67648.00
2018-06-09T09:27:58.853Z,68416.00
2018-06-09T09:28:59.076Z,69248.00
2018-06-09T09:29:59.273Z,69600.00
2018-06-09T09:30:59.491Z,69600.00
2018-06-09T09:31:59.698Z,68736.00
2018-06-09T09:32:59.906Z,68928.00
2018-06-09T09:34:00.127Z,68128.00
2018-06-09T09:35:00.356Z,67328.00
2018-06-09T09:36:00.566Z,66656.00
2018-06-09T09:37:00.792Z,66560.00
2018-06-09T09:38:01.014Z,67008.00
2018-06-09T09:39:01.228Z,66656.00
2018-06-09T09:40:01.447Z,66784.00
2018-06-09T09:41:01.659Z,67104.00
2018-06-09T09:42:01.892Z,66592.00
2018-06-09T09:43:02.066Z,66368.00
2018-06-09T09:44:02.300Z,66336.00
2018-06-09T09:45:02.508Z,66784.00
2018-06-09T09:46:02.712Z,67104.00
2018-06-09T09:47:03.115Z,67616.00
2018-06-09T09:48:03.105Z,66784.00
2018-06-09T09:49:03.314Z,66080.00
2018-06-09T09:50:03.547Z,64928.00
2018-06-09T09:51:03.751Z,64448.00
2018-06-09T09:52:03.985Z,63776.00
2018-06-09T09:53:04.202Z,63840.00
2018-06-09T09:54:04.409Z,61152.00
2018-06-09T09:55:04.626Z,62432.00
2018-06-09T09:56:04.838Z,62368.00
2018-06-09T09:57:05.061Z,60608.00
2018-06-09T09:58:05.307Z,61120.00
2018-06-09T09:59:05.534Z,60672.00
2018-06-09T10:00:05.740Z,60704.00
2018-06-09T10:01:05.955Z,60480.00
2018-06-09T10:02:06.186Z,60256.00
2018-06-09T10:03:06.409Z,60288.00
2018-06-09T10:04:06.621Z,58464.00
2018-06-09T10:05:06.840Z,58656.00
2018-06-09T10:06:07.076Z,58176.00
2018-06-09T10:07:07.316Z,57408.00
2018-06-09T10:08:07.545Z,58560.00
2018-06-09T10:09:07.766Z,59072.00
2018-06-09T10:10:07.976Z,58880.00
2018-06-09T10:11:08.175Z,58432.00
2018-06-09T10:12:08.404Z,57568.00
2018-06-09T10:13:08.611Z,56160.00
2018-06-09T10:14:09.682Z,55776.00
2018-06-09T10:15:09.040Z,54880.00
2018-06-09T10:16:09.234Z,53920.00
2018-06-09T10:17:09.454Z,55200.00
2018-06-09T10:18:09.681Z,55360.00
2018-06-09T10:19:09.906Z,55008.00
2018-06-09T10:20:10.123Z,53472.00
2018-06-09T10:22:42.280Z,26176.00
2018-06-09T10:23:42.481Z,21536.00
2018-06-09T10:24:42.691Z,21472.00
2018-06-09T10:25:42.891Z,21472.00
2018-06-09T10:26:43.093Z,21376.00
2018-06-09T10:27:43.363Z,21376.00
2018-06-09T10:28:43.464Z,21248.00
2018-06-09T10:29:43.674Z,21088.00
2018-06-09T10:30:43.911Z,20928.00
2018-06-09T10:31:44.196Z,20928.00
2018-06-09T10:32:44.418Z,20928.00
2018-06-09T10:33:44.566Z,20960.00
2018-06-09T10:34:44.778Z,20928.00
2018-06-09T10:35:44.994Z,20448.00
2018-06-09T10:36:45.194Z,20704.00
2018-06-09T10:37:45.413Z,20736.00
2018-06-09T10:38:45.697Z,20352.00
2018-06-09T10:39:45.839Z,20768.00
2018-06-09T10:40:46.056Z,20896.00
2018-06-09T10:41:46.272Z,20736.00
2018-06-09T10:42:46.491Z,13736.00
2018-06-09T10:43:46.716Z,20448.00
2018-06-09T10:44:46.935Z,20352.00
2018-06-09T10:45:47.138Z,20448.00
2018-06-09T10:46:47.371Z,20384.00
2018-06-09T10:47:47.588Z,20352.00
2018-06-09T10:48:47.804Z,20384.00
2018-06-09T10:49:48.021Z,20352.00
2018-06-09T10:50:48.245Z,20448.00
2018-06-09T10:51:48.454Z,20576.00
2018-06-09T10:52:48.666Z,20544.00
2018-06-09T10:53:48.888Z,20512.00
2018-06-09T10:54:49.146Z,20576.00
2018-06-09T10:55:49.374Z,20512.00
2018-06-09T10:56:49.598Z,20256.00
2018-06-09T10:57:49.804Z,20224.00
2018-06-09T10:58:50.027Z,20384.00
2018-06-09T10:59:50.242Z,20352.00
2018-06-09T11:00:50.442Z,20288.00
2018-06-09T11:01:50.649Z,19392.00
2018-06-09T11:02:50.891Z,18016.00
2018-06-09T11:05:23.806Z,20096.00
2018-06-09T11:06:23.241Z,19968.00
2018-06-09T11:07:23.441Z,20160.00
2018-06-09T11:08:23.654Z,20096.00
2018-06-09T11:09:23.881Z,19904.00
2018-06-09T11:10:24.103Z,19680.00
2018-06-09T11:11:24.303Z,18176.00
2018-06-09T11:12:24.511Z,17324.00
2018-06-09T11:13:24.723Z,19872.00
2018-06-09T11:14:24.948Z,19328.00
2018-06-09T11:16:57.060Z,20032.00
2018-06-09T11:17:57.244Z,19776.00
2018-06-09T11:18:57.475Z,19648.00
2018-06-09T11:19:57.696Z,19616.00
2018-06-09T11:20:57.892Z,19232.00
2018-06-09T11:21:58.110Z,18624.00
2018-06-09T11:22:58.328Z,18176.00
2018-06-09T11:23:58.548Z,15816.00
2018-06-09T11:24:58.743Z,16512.00
2018-06-09T11:25:58.968Z,17504.00
2018-06-09T11:26:59.166Z,17152.00
2018-06-09T11:27:59.384Z,17248.00
2018-06-09T11:28:59.591Z,16992.00
2018-06-09T11:29:59.814Z,16352.00
2018-06-09T11:31:00.008Z,16060.00
2018-06-09T11:32:00.226Z,16020.00
2018-06-09T11:33:00.431Z,16896.00
2018-06-09T11:34:00.611Z,18208.00
2018-06-09T11:35:00.829Z,18432.00
2018-06-09T11:36:01.058Z,18560.00
2018-06-09T11:37:01.261Z,19040.00
2018-06-09T11:38:01.476Z,19392.00
2018-06-09T11:39:01.685Z,19872.00
2018-06-09T11:40:01.887Z,20032.00
2018-06-09T11:41:02.111Z,20096.00
2018-06-09T11:42:02.336Z,20000.00
2018-06-09T11:44:34.611Z,19552.00
2018-06-09T11:45:34.836Z,19424.00
2018-06-09T11:46:35.060Z,19424.00
2018-06-09T11:47:35.263Z,19456.00
2018-06-09T11:48:35.561Z,19488.00
2018-06-09T11:49:35.635Z,19424.00
2018-06-09T11:50:35.857Z,19232.00
2018-06-09T11:51:36.078Z,19136.00
2018-06-09T11:52:36.297Z,19008.00
2018-06-09T11:53:36.515Z,19008.00
2018-06-09T11:54:36.727Z,18912.00
2018-06-09T11:55:36.925Z,18784.00
2018-06-09T11:56:37.114Z,18624.00
2018-06-09T11:57:37.321Z,18368.00
2018-06-09T11:58:37.548Z,18272.00
2018-06-09T11:59:37.830Z,18272.00
2018-06-09T12:00:37.926Z,18208.00
2018-06-09T12:01:38.145Z,18336.00
2018-06-09T12:02:38.364Z,18464.00
2018-06-09T12:03:38.556Z,18528.00
2018-06-09T12:04:38.780Z,18880.00
2018-06-09T12:05:39.002Z,18944.00
2018-06-09T12:06:39.195Z,18848.00
2018-06-09T12:07:39.386Z,18720.00
2018-06-09T12:08:39.583Z,18528.00
2018-06-09T12:09:39.778Z,18240.00
2018-06-09T12:10:39.975Z,17952.00
2018-06-09T12:11:40.197Z,17632.00
2018-06-09T12:12:40.415Z,17408.00
2018-06-09T12:13:40.628Z,17344.00
2018-06-09T12:14:40.864Z,15860.00
2018-06-09T12:15:41.064Z,15308.00
2018-06-09T12:16:41.278Z,15340.00
2018-06-09T12:17:41.476Z,15340.00
2018-06-09T12:18:41.699Z,15292.00
2018-06-09T12:19:41.917Z,14968.00
2018-06-09T12:20:42.144Z,14536.00
2018-06-09T12:21:42.356Z,14044.00
2018-06-09T12:22:42.579Z,13544.00
2018-06-09T12:23:42.793Z,13256.00
2018-06-09T12:24:43.012Z,12876.00
2018-06-09T12:25:43.228Z,12484.00
2018-06-09T12:26:43.452Z,12092.00
2018-06-09T12:27:43.667Z,11844.00
2018-06-09T12:28:43.872Z,11704.00
2018-06-09T12:29:44.093Z,11408.00
2018-06-09T12:30:44.296Z,11108.00
2018-06-09T12:31:44.495Z,10928.00
2018-06-09T12:32:44.715Z,10816.00
2018-06-09T12:33:44.931Z,10640.00
2018-06-09T12:34:45.149Z,10344.00